Terminal Aerodrome Forecast
Issued by NWS Louisville, KY

Home | Current Version | Previous Version | Text Only | Print | Product List | Glossary On
Versions: 1 2 3 4 5 6 7 8 9 10 11 12 13 14 15 16 17 18 19 20
000
FTUS43 KLMK 201455 AAA
TAFSDF
TAF AMD
KSDF 201455Z 2015/2118 18008KT P6SM VCTS SCT040CB BKN150
     FM201700 19009KT P6SM VCTS SCT040CB BKN150
     FM210000 15007KT P6SM -SHRA VCTS SCT040CB BKN080
     FM210800 17006KT P6SM -SHRA BKN040=

USA.gov is the U.S. government's official web portal to all federal, state and local government web resources and services.